Bratislava, Slovakia
Current Conditions -  °F | °C
As of 8:00 AM on Sunday 26 Oct 2014 (Local Time) from LZIB Reporting Station
Overcast Overcast  
Wind Chill: 45°   Ceiling: 900
Heat Index: 45°   Visibility: 4mi
Dew Point: 41°   Wind: 2mph
Humidity: 87%   Direction: 120°ESE
Pressure: 30.39"   Gusts: NA
Location:  48.16°N, 17.13°E
Report Text: LZIB 260600Z 12002KT 6000 OVC009 07/05 Q1029 NOSIG
Loading
Personal Weather Stations






























Interactive Weather Map New forecast layout! Learn more

10-Day Weather Forecast

Advertisements
Track Severe Weather on mobile